createdAt,value
2023-01-02T00:00:08.893Z,82.08
2023-01-02T00:02:37.224Z,81.74
2023-01-02T00:05:08.331Z,81.79
2023-01-02T00:07:36.663Z,82.79
2023-01-02T00:10:07.106Z,83.63
2023-01-02T00:12:35.860Z,84.12
2023-01-02T00:15:04.185Z,84.54
2023-01-02T00:17:32.311Z,84.85
2023-01-02T00:20:00.584Z,85.57
2023-01-02T00:22:28.759Z,86.39
2023-01-02T00:24:56.878Z,86.29
2023-01-02T00:27:27.056Z,86.65
2023-01-02T00:29:55.209Z,87.05
2023-01-02T00:32:23.305Z,87.54
2023-01-02T00:34:51.482Z,87.73
2023-01-02T00:37:19.719Z,87.97
2023-01-02T00:39:47.932Z,88.32
2023-01-02T00:42:16.079Z,88.58
2023-01-02T00:44:45.657Z,88.57
2023-01-02T00:47:13.810Z,88.63
2023-01-02T00:49:42.005Z,88.44
2023-01-02T00:52:10.173Z,88.35
2023-01-02T00:54:38.417Z,88.39
2023-01-02T00:57:06.735Z,88.96
2023-01-02T00:59:34.800Z,89.37
2023-01-02T01:02:04.376Z,90.01
2023-01-02T01:04:34.402Z,90.22
2023-01-02T01:07:02.607Z,90.33
2023-01-02T01:09:30.980Z,89.94
2023-01-02T01:12:01.122Z,89.32
2023-01-02T01:14:32.859Z,88.75
2023-01-02T01:17:01.179Z,87.40
2023-01-02T01:19:32.270Z,87.03
2023-01-02T01:22:00.732Z,87.18
2023-01-02T01:24:29.116Z,87.35
2023-01-02T01:26:57.203Z,87.02
2023-01-02T01:29:25.348Z,86.72
2023-01-02T01:31:53.491Z,86.51
2023-01-02T01:34:21.581Z,86.29
2023-01-02T01:36:51.204Z,85.70
2023-01-02T01:39:19.367Z,85.27
2023-01-02T01:41:47.527Z,84.57
2023-01-02T01:44:42.093Z,83.53
2023-01-02T01:47:19.953Z,82.70
2023-01-02T01:49:48.878Z,81.97
2023-01-02T01:52:23.215Z,81.39
2023-01-02T01:54:56.193Z,81.39
2023-01-02T01:57:32.361Z,80.68
2023-01-02T02:00:01.880Z,80.59
2023-01-02T02:02:33.518Z,80.63
2023-01-02T02:05:07.035Z,81.08
2023-01-02T02:07:39.178Z,81.66
2023-01-02T02:10:09.999Z,82.21
2023-01-02T02:12:38.088Z,83.04
2023-01-02T02:15:10.566Z,83.43
2023-01-02T02:17:50.988Z,83.49
2023-01-02T02:20:31.590Z,83.84
2023-01-02T02:23:47.042Z,84.23
2023-01-02T02:26:32.911Z,84.68
2023-01-02T02:29:42.133Z,84.93
2023-01-02T02:32:23.000Z,85.23
2023-01-02T02:35:00.445Z,85.42
2023-01-02T02:37:39.135Z,85.57
2023-01-02T02:40:18.875Z,86.36
2023-01-02T02:42:57.847Z,86.29
2023-01-02T02:45:34.756Z,86.64
2023-01-02T02:48:12.983Z,87.12
2023-01-02T02:50:47.327Z,87.05
2023-01-02T02:53:21.074Z,87.15
2023-01-02T02:55:52.632Z,87.50
2023-01-02T02:58:23.600Z,87.57
2023-01-02T03:00:51.753Z,87.26
2023-01-02T03:03:23.027Z,87.07
2023-01-02T03:06:08.345Z,87.35
2023-01-02T03:08:43.811Z,87.23
2023-01-02T03:11:13.317Z,87.44
2023-01-02T03:13:47.356Z,87.85
2023-01-02T03:16:25.231Z,87.67
2023-01-02T03:18:59.889Z,87.74
2023-01-02T03:21:34.889Z,87.52
2023-01-02T03:24:07.494Z,87.60
2023-01-02T03:26:37.885Z,87.99
2023-01-02T03:29:10.501Z,87.74
2023-01-02T03:31:41.923Z,86.95
2023-01-02T03:34:14.975Z,87.24
2023-01-02T03:36:46.711Z,87.89
2023-01-02T03:39:17.735Z,88.68
2023-01-02T03:41:52.780Z,89.03
2023-01-02T03:44:23.991Z,88.94
2023-01-02T03:46:56.104Z,88.48
2023-01-02T03:49:31.775Z,89.09
2023-01-02T03:52:00.245Z,89.72
2023-01-02T03:54:30.206Z,90.40
2023-01-02T03:57:02.792Z,90.34
2023-01-02T03:59:39.748Z,90.38
2023-01-02T04:02:14.497Z,90.94
2023-01-02T04:04:51.686Z,91.07
2023-01-02T04:07:27.427Z,90.27
2023-01-02T04:09:56.702Z,88.38
2023-01-02T04:12:28.088Z,86.91
2023-01-02T04:15:00.698Z,86.77
2023-01-02T04:17:31.677Z,86.60
2023-01-02T04:20:06.727Z,86.32
2023-01-02T04:22:42.028Z,86.13
2023-01-02T04:25:14.786Z,86.04
2023-01-02T04:27:48.030Z,85.72
2023-01-02T04:30:17.136Z,87.87
2023-01-02T04:32:46.674Z,88.62
2023-01-02T04:35:19.983Z,89.04
2023-01-02T04:37:49.066Z,88.16
2023-01-02T04:40:23.479Z,86.90
2023-01-02T04:42:52.035Z,86.11
2023-01-02T04:45:20.236Z,85.54
2023-01-02T04:47:49.187Z,85.68
2023-01-02T04:50:19.677Z,85.90
2023-01-02T04:52:47.766Z,86.41
2023-01-02T04:55:15.934Z,86.75
2023-01-02T04:57:44.137Z,87.19
2023-01-02T05:00:13.107Z,86.89
2023-01-02T05:02:41.578Z,86.88
2023-01-02T05:05:11.523Z,86.47
2023-01-02T05:07:41.198Z,86.09
2023-01-02T05:10:10.503Z,86.05
2023-01-02T05:12:40.138Z,86.29
2023-01-02T05:15:11.049Z,86.55
2023-01-02T05:17:40.630Z,86.23
2023-01-02T05:20:12.057Z,86.38
2023-01-02T05:23:00.168Z,86.17
2023-01-02T05:25:29.077Z,87.02
2023-01-02T05:27:57.189Z,88.03
2023-01-02T05:30:25.602Z,88.96
2023-01-02T05:32:53.757Z,89.11
2023-01-02T05:35:27.094Z,89.26
2023-01-02T05:37:59.837Z,89.40
2023-01-02T05:40:28.003Z,89.21
2023-01-02T05:42:56.176Z,89.31
2023-01-02T05:45:24.425Z,88.87
2023-01-02T05:47:52.451Z,88.71
2023-01-02T05:50:20.797Z,88.82
2023-01-02T05:52:48.943Z,88.77
2023-01-02T05:55:18.501Z,89.05
2023-01-02T05:57:46.623Z,89.03
2023-01-02T06:00:15.837Z,88.74
2023-01-02T06:02:48.124Z,88.27
2023-01-02T06:05:16.907Z,88.13
2023-01-02T06:07:45.013Z,88.24
2023-01-02T06:10:13.193Z,88.50
2023-01-02T06:12:42.695Z,88.48
2023-01-02T06:15:11.488Z,88.82
2023-01-02T06:17:39.595Z,89.06
2023-01-02T06:20:09.019Z,89.22
2023-01-02T06:22:37.129Z,88.57
2023-01-02T06:25:05.859Z,88.54
2023-01-02T06:27:34.085Z,87.45
2023-01-02T06:30:03.593Z,87.79
2023-01-02T06:32:31.699Z,87.46
2023-01-02T06:34:59.790Z,86.74
2023-01-02T06:37:27.916Z,86.34
2023-01-02T06:39:56.032Z,86.10
2023-01-02T06:42:24.193Z,85.49
2023-01-02T06:44:52.426Z,84.98
2023-01-02T06:47:21.892Z,84.69
2023-01-02T06:49:50.062Z,84.40
2023-01-02T06:52:18.257Z,83.84
2023-01-02T06:54:46.415Z,82.92
2023-01-02T06:57:14.657Z,82.95
2023-01-02T06:59:43.144Z,82.45
2023-01-02T07:02:12.802Z,82.03
2023-01-02T07:04:42.462Z,82.03
2023-01-02T07:07:10.609Z,81.78
2023-01-02T07:09:38.723Z,81.77
2023-01-02T07:12:07.210Z,81.95
2023-01-02T07:14:35.322Z,81.80
2023-01-02T07:17:03.443Z,82.11
2023-01-02T07:19:31.673Z,84.33
2023-01-02T07:22:01.268Z,85.15
2023-01-02T07:24:29.419Z,86.28
2023-01-02T07:26:57.511Z,86.63
2023-01-02T07:29:25.619Z,87.11
2023-01-02T07:31:53.804Z,87.49
2023-01-02T07:34:21.910Z,87.69
2023-01-02T07:36:50.002Z,87.45
2023-01-02T07:39:19.637Z,87.40
2023-01-02T07:41:47.927Z,87.23
2023-01-02T07:44:16.209Z,87.23
2023-01-02T07:46:44.321Z,87.02
2023-01-02T07:49:12.750Z,86.67
2023-01-02T07:51:41.288Z,85.45
2023-01-02T07:54:09.554Z,84.61
2023-01-02T07:56:39.041Z,84.56
2023-01-02T07:59:07.233Z,83.76
2023-01-02T08:01:35.575Z,84.04
2023-01-02T08:04:03.883Z,83.34
2023-01-02T08:06:32.030Z,82.45
2023-01-02T08:09:00.224Z,81.67
2023-01-02T08:11:28.324Z,80.71
2023-01-02T08:13:58.318Z,80.61
2023-01-02T08:16:26.545Z,79.60
2023-01-02T08:18:56.199Z,76.88
2023-01-02T08:21:24.695Z,74.05
2023-01-02T08:23:52.975Z,71.41
2023-01-02T08:26:21.784Z,69.75
2023-01-02T08:28:49.892Z,71.20
2023-01-02T08:31:21.743Z,71.59
2023-01-02T08:33:50.072Z,71.42
2023-01-02T08:36:18.242Z,70.16
2023-01-02T08:38:47.525Z,69.05
2023-01-02T08:41:16.244Z,67.73
2023-01-02T08:43:44.556Z,66.47
2023-01-02T08:46:12.768Z,67.20
2023-01-02T08:48:42.274Z,67.97
2023-01-02T08:51:11.290Z,67.75
2023-01-02T08:53:39.355Z,65.07
2023-01-02T08:56:22.264Z,65.69
2023-01-02T08:58:55.263Z,65.37
2023-01-02T09:01:25.467Z,65.47
2023-01-02T09:03:55.745Z,64.50
2023-01-02T09:06:26.316Z,64.09
2023-01-02T09:08:56.787Z,64.41
2023-01-02T09:11:27.156Z,63.73
2023-01-02T09:13:55.455Z,62.95
2023-01-02T09:16:24.062Z,62.38
2023-01-02T09:18:52.789Z,61.84
2023-01-02T09:21:22.281Z,62.99
2023-01-02T09:23:50.435Z,61.81
2023-01-02T09:26:19.804Z,60.30
2023-01-02T09:28:48.215Z,59.79
2023-01-02T09:31:17.957Z,58.72
2023-01-02T09:33:47.805Z,58.73
2023-01-02T09:36:18.286Z,58.05
2023-01-02T09:38:52.656Z,57.88
2023-01-02T09:41:39.674Z,57.24
2023-01-02T09:44:14.755Z,54.75
2023-01-02T09:46:50.013Z,54.54
2023-01-02T09:49:21.385Z,54.80
2023-01-02T09:51:50.033Z,54.75
2023-01-02T09:54:26.637Z,55.49
2023-01-02T09:57:10.375Z,55.46
2023-01-02T09:59:48.752Z,55.53
2023-01-02T10:02:33.070Z,56.29
2023-01-02T10:05:17.773Z,56.20
2023-01-02T10:07:54.338Z,56.79
2023-01-02T10:10:31.755Z,56.03
2023-01-02T10:13:07.432Z,56.16
2023-01-02T10:15:38.855Z,55.58
2023-01-02T10:18:15.983Z,55.37
2023-01-02T10:20:47.813Z,54.45
2023-01-02T10:23:22.823Z,55.03
2023-01-02T10:25:57.020Z,54.96
2023-01-02T10:28:34.291Z,55.19
2023-01-02T10:31:07.651Z,55.52
2023-01-02T10:33:45.384Z,55.52
2023-01-02T10:36:24.268Z,54.43
2023-01-02T10:38:53.026Z,54.27
2023-01-02T10:41:22.618Z,55.45
2023-01-02T10:43:55.387Z,53.90
2023-01-02T10:46:23.540Z,54.90
2023-01-02T10:48:52.552Z,54.76
2023-01-02T10:51:21.248Z,55.46
2023-01-02T10:54:01.532Z,55.61
2023-01-02T10:56:33.159Z,54.88
2023-01-02T10:59:01.938Z,55.89
2023-01-02T11:01:30.974Z,55.26
2023-01-02T11:04:13.696Z,55.40
2023-01-02T11:06:53.288Z,54.28
2023-01-02T11:09:23.690Z,54.09
2023-01-02T11:11:54.418Z,55.06
2023-01-02T11:14:25.127Z,54.93
2023-01-02T11:16:53.291Z,55.65
2023-01-02T11:19:29.456Z,55.48
2023-01-02T11:21:58.802Z,55.76
2023-01-02T11:24:28.667Z,55.64
2023-01-02T11:27:02.657Z,55.98
2023-01-02T11:29:33.027Z,55.47
2023-01-02T11:32:03.476Z,56.56
2023-01-02T11:34:35.512Z,56.80
2023-01-02T11:37:06.810Z,56.99
2023-01-02T11:39:36.134Z,57.35
2023-01-02T11:42:40.774Z,56.69
2023-01-02T11:45:11.960Z,55.65
2023-01-02T11:47:46.382Z,56.51
2023-01-02T11:50:22.582Z,57.07
2023-01-02T11:52:57.529Z,57.95
2023-01-02T11:55:36.931Z,58.09
2023-01-02T11:58:19.077Z,56.04
2023-01-02T12:00:51.417Z,55.56
2023-01-02T12:03:24.067Z,55.97
2023-01-02T12:06:10.884Z,53.58
2023-01-02T12:08:51.739Z,55.68
2023-01-02T12:11:33.405Z,56.66
2023-01-02T12:14:15.032Z,56.14
2023-01-02T12:16:51.593Z,56.31
2023-01-02T12:19:49.245Z,57.51
2023-01-02T12:22:31.310Z,57.75
2023-01-02T12:25:33.288Z,58.69
2023-01-02T12:28:16.609Z,59.01
2023-01-02T12:30:56.702Z,59.06
2023-01-02T12:33:43.724Z,58.87
2023-01-02T12:36:44.601Z,57.68
2023-01-02T12:39:39.734Z,59.38
2023-01-02T12:42:22.625Z,59.31
2023-01-02T12:44:53.705Z,59.92
2023-01-02T12:47:57.683Z,60.63
2023-01-02T12:50:57.934Z,60.71
2023-01-02T12:53:43.919Z,60.43
2023-01-02T12:56:16.432Z,61.22
2023-01-02T12:59:04.743Z,62.40
2023-01-02T13:01:41.168Z,60.10
2023-01-02T13:04:19.881Z,61.84
2023-01-02T13:06:53.181Z,62.00
2023-01-02T13:09:28.794Z,63.22
2023-01-02T13:12:06.257Z,63.53
2023-01-02T13:14:39.316Z,63.29
2023-01-02T13:17:28.399Z,63.77
2023-01-02T13:20:02.456Z,64.70
2023-01-02T13:22:38.758Z,64.62
2023-01-02T13:25:13.864Z,64.67
2023-01-02T13:27:42.542Z,66.30
2023-01-02T13:30:38.966Z,66.83
2023-01-02T13:33:30.796Z,67.79
2023-01-02T13:36:03.522Z,67.25
2023-01-02T13:38:37.042Z,67.30
2023-01-02T13:41:05.241Z,66.40
2023-01-02T13:43:34.963Z,67.79
2023-01-02T13:46:03.712Z,67.58
2023-01-02T13:48:36.225Z,67.93
2023-01-02T13:51:09.144Z,68.30
2023-01-02T13:53:39.796Z,68.78
2023-01-02T13:56:13.062Z,69.77
2023-01-02T13:58:50.100Z,70.34
2023-01-02T14:01:44.202Z,71.01
2023-01-02T14:04:39.945Z,71.31
2023-01-02T14:07:40.512Z,72.33
2023-01-02T14:10:36.107Z,73.21
2023-01-02T14:13:10.267Z,73.15
2023-01-02T14:15:58.783Z,73.68
2023-01-02T14:18:30.656Z,73.91
2023-01-02T14:20:59.156Z,74.34
2023-01-02T14:23:30.949Z,74.99
2023-01-02T14:26:00.752Z,74.87
2023-01-02T14:28:31.703Z,75.47
2023-01-02T14:31:00.225Z,76.69
2023-01-02T14:33:34.140Z,77.28
2023-01-02T14:36:07.737Z,78.06
2023-01-02T14:38:41.458Z,79.16
2023-01-02T14:41:49.693Z,80.39
2023-01-02T14:44:17.835Z,81.07
2023-01-02T14:46:46.135Z,81.47
2023-01-02T14:49:25.841Z,82.20
2023-01-02T14:52:00.578Z,83.05
2023-01-02T14:54:34.600Z,83.03
2023-01-02T14:57:10.920Z,83.88
2023-01-02T14:59:42.989Z,83.93
2023-01-02T15:02:18.910Z,84.33
2023-01-02T15:04:52.517Z,85.68
2023-01-02T15:07:26.695Z,86.91
2023-01-02T15:10:00.149Z,87.43
2023-01-02T15:12:49.474Z,88.70
2023-01-02T15:15:19.271Z,89.34
2023-01-02T15:17:50.371Z,88.81
2023-01-02T15:20:22.289Z,89.96
2023-01-02T15:22:52.951Z,91.35
2023-01-02T15:25:35.421Z,91.72
2023-01-02T15:28:05.310Z,92.28
2023-01-02T15:30:38.566Z,92.26
2023-01-02T15:33:07.347Z,91.89
2023-01-02T15:35:36.675Z,91.79
2023-01-02T15:38:05.905Z,92.45
2023-01-02T15:40:38.016Z,92.92
2023-01-02T15:43:33.353Z,93.60
2023-01-02T15:46:01.966Z,94.81
2023-01-02T15:48:30.664Z,95.86
2023-01-02T15:50:59.928Z,95.72
2023-01-02T15:53:30.699Z,96.85
2023-01-02T15:55:59.917Z,96.98
2023-01-02T15:58:32.029Z,97.71
2023-01-02T16:01:16.991Z,98.90
2023-01-02T16:04:01.967Z,99.89
2023-01-02T16:06:34.953Z,100.00
2023-01-02T16:09:05.576Z,100.00
2023-01-02T16:11:44.536Z,100.00
2023-01-02T16:14:21.274Z,100.00
2023-01-02T16:16:53.484Z,100.00
2023-01-02T16:19:26.205Z,99.85
2023-01-02T16:22:02.671Z,98.62
2023-01-02T16:24:32.382Z,98.20
2023-01-02T16:27:00.633Z,96.39
2023-01-02T16:29:30.348Z,95.09
2023-01-02T16:32:00.142Z,95.02
2023-01-02T16:34:36.150Z,96.44
2023-01-02T16:37:29.978Z,97.05
2023-01-02T16:39:58.352Z,98.64
2023-01-02T16:42:37.579Z,99.13
2023-01-02T16:45:08.276Z,100.00
2023-01-02T16:47:40.005Z,100.00
2023-01-02T16:50:15.561Z,100.00
2023-01-02T16:52:44.089Z,100.00
2023-01-02T16:55:17.211Z,100.00
2023-01-02T16:57:45.432Z,100.00
2023-01-02T17:00:19.120Z,100.00
2023-01-02T17:02:48.185Z,100.00
2023-01-02T17:05:20.410Z,100.00
2023-01-02T17:07:48.677Z,100.00
2023-01-02T17:10:17.106Z,100.00
2023-01-02T17:12:45.641Z,100.00
2023-01-02T17:15:17.319Z,100.00
2023-01-02T17:17:45.410Z,100.00
2023-01-02T17:20:15.637Z,100.00
2023-01-02T17:22:43.939Z,100.00
2023-01-02T17:25:15.925Z,100.00
2023-01-02T17:27:45.050Z,100.00
2023-01-02T17:30:16.812Z,100.00
2023-01-02T17:32:45.573Z,100.00
2023-01-02T17:35:14.055Z,100.00
2023-01-02T17:37:42.673Z,100.00
2023-01-02T17:40:13.252Z,100.00
2023-01-02T17:42:41.418Z,100.00
2023-01-02T17:45:10.943Z,100.00
2023-01-02T17:48:11.609Z,100.00
2023-01-02T17:50:28.957Z,100.00
2023-01-02T17:52:57.179Z,100.00
2023-01-02T17:55:25.468Z,100.00
2023-01-02T17:57:53.650Z,100.00
2023-01-02T18:00:23.643Z,100.00
2023-01-02T18:02:54.610Z,100.00
2023-01-02T18:05:23.431Z,100.00
2023-01-02T18:07:51.744Z,100.00
2023-01-02T18:10:21.134Z,100.00
2023-01-02T18:12:50.844Z,100.00
2023-01-02T18:15:21.983Z,100.00
2023-01-02T18:17:50.904Z,100.00
2023-01-02T18:20:23.611Z,100.00
2023-01-02T18:22:51.728Z,100.00
2023-01-02T18:25:24.435Z,100.00
2023-01-02T18:27:52.788Z,100.00
2023-01-02T18:30:23.851Z,100.00
2023-01-02T18:32:58.838Z,100.00
2023-01-02T18:38:29.342Z,99.76
2023-01-02T18:40:58.085Z,100.00
2023-01-02T18:43:29.762Z,100.00
2023-01-02T18:46:00.153Z,100.00
2023-01-02T18:48:28.576Z,100.00
2023-01-02T18:51:02.634Z,100.00
2023-01-02T18:53:32.525Z,100.00
2023-01-02T18:56:03.364Z,100.00
2023-01-02T18:58:43.351Z,100.00
2023-01-02T19:01:24.949Z,100.00
2023-01-02T19:03:56.841Z,100.00
2023-01-02T19:06:28.203Z,100.00
2023-01-02T19:09:02.995Z,100.00
2023-01-02T19:11:51.548Z,100.00
2023-01-02T19:14:23.249Z,100.00
2023-01-02T19:17:05.912Z,100.00
2023-01-02T19:19:40.337Z,100.00
2023-01-02T19:22:14.537Z,100.00
2023-01-02T19:24:42.786Z,100.00
2023-01-02T19:27:22.972Z,100.00
2023-01-02T19:29:52.372Z,100.00
2023-01-02T19:32:31.138Z,100.00
2023-01-02T19:35:03.522Z,100.00
2023-01-02T19:37:39.231Z,100.00
2023-01-02T19:40:19.021Z,100.00
2023-01-02T19:42:48.642Z,100.00
2023-01-02T19:45:18.906Z,100.00
2023-01-02T19:47:47.876Z,100.00
2023-01-02T19:50:18.470Z,100.00
2023-01-02T19:52:48.696Z,100.00
2023-01-02T19:55:18.010Z,100.00
2023-01-02T19:57:46.861Z,100.00
2023-01-02T20:00:19.304Z,100.00
2023-01-02T20:02:49.677Z,100.00
2023-01-02T20:05:21.968Z,100.00
2023-01-02T20:07:54.292Z,100.00
2023-01-02T20:10:22.910Z,100.00
2023-01-02T20:12:51.385Z,100.00
2023-01-02T20:15:23.743Z,100.00
2023-01-02T20:17:53.352Z,100.00
2023-01-02T20:20:23.507Z,100.00
2023-01-02T20:22:54.987Z,100.00
2023-01-02T20:25:26.488Z,100.00
2023-01-02T20:27:55.979Z,100.00
2023-01-02T20:30:25.325Z,100.00
2023-01-02T20:32:53.667Z,100.00
2023-01-02T20:35:21.854Z,100.00
2023-01-02T20:37:50.165Z,100.00
2023-01-02T20:40:19.782Z,100.00
2023-01-02T20:42:48.250Z,100.00
2023-01-02T20:45:16.366Z,100.00
2023-01-02T20:47:44.526Z,100.00
2023-01-02T20:50:12.656Z,100.00
2023-01-02T20:52:40.757Z,100.00
2023-01-02T20:55:09.729Z,100.00
2023-01-02T20:57:39.336Z,100.00
2023-01-02T21:00:10.563Z,100.00
2023-01-02T21:02:39.254Z,100.00
2023-01-02T21:05:07.842Z,100.00
2023-01-02T21:07:36.118Z,100.00
2023-01-02T21:10:04.450Z,100.00
2023-01-02T21:12:50.035Z,100.00
2023-01-02T21:15:33.565Z,100.00
2023-01-02T21:18:02.085Z,100.00
2023-01-02T21:20:30.331Z,100.00
2023-01-02T21:22:58.510Z,100.00
2023-01-02T21:25:26.736Z,100.00
2023-01-02T21:27:54.859Z,100.00
2023-01-02T21:30:24.463Z,100.00
2023-01-02T21:32:52.848Z,100.00
2023-01-02T21:35:20.991Z,100.00
2023-01-02T21:37:49.237Z,100.00
2023-01-02T21:40:17.660Z,100.00
2023-01-02T21:42:45.798Z,100.00
2023-01-02T21:45:14.207Z,100.00
2023-01-02T21:47:43.803Z,100.00
2023-01-02T21:50:12.424Z,100.00
2023-01-02T21:52:40.502Z,100.00
2023-01-02T21:55:09.519Z,100.00
2023-01-02T21:58:11.621Z,100.00
2023-01-02T22:00:28.184Z,100.00
2023-01-02T22:02:57.881Z,100.00
2023-01-02T22:05:26.198Z,100.00
2023-01-02T22:07:54.656Z,100.00
2023-01-02T22:10:22.852Z,100.00
2023-01-02T22:12:51.087Z,100.00
2023-01-02T22:15:19.698Z,100.00
2023-01-02T22:17:48.201Z,100.00
2023-01-02T22:20:18.202Z,100.00
2023-01-02T22:22:46.529Z,100.00
2023-01-02T22:25:14.709Z,100.00
2023-01-02T22:27:43.109Z,100.00
2023-01-02T22:30:23.305Z,100.00
2023-01-02T22:32:55.392Z,100.00
2023-01-02T22:35:25.117Z,100.00
2023-01-02T22:37:53.421Z,100.00
2023-01-02T22:40:21.643Z,100.00
2023-01-02T22:43:01.497Z,100.00
2023-01-02T22:45:35.593Z,100.00
2023-01-02T22:48:08.900Z,100.00
2023-01-02T22:50:43.842Z,100.00
2023-01-02T22:53:19.253Z,100.00
2023-01-02T22:55:47.531Z,100.00
2023-01-02T22:58:16.446Z,100.00
2023-01-02T23:00:44.675Z,100.00
2023-01-02T23:03:14.571Z,100.00
2023-01-02T23:05:44.573Z,100.00
2023-01-02T23:08:12.716Z,100.00
2023-01-02T23:10:40.818Z,100.00
2023-01-02T23:13:09.156Z,100.00
2023-01-02T23:15:57.281Z,100.00
2023-01-02T23:18:43.286Z,100.00
2023-01-02T23:21:13.045Z,100.00
2023-01-02T23:23:41.689Z,100.00
2023-01-02T23:26:10.196Z,100.00
2023-01-02T23:29:05.776Z,100.00
2023-01-02T23:31:26.550Z,100.00
2023-01-02T23:33:54.940Z,100.00
2023-01-02T23:36:24.565Z,100.00
2023-01-02T23:38:52.652Z,100.00
2023-01-02T23:41:20.945Z,100.00
2023-01-02T23:43:49.039Z,100.00
2023-01-02T23:46:17.206Z,100.00
2023-01-02T23:48:45.429Z,100.00
2023-01-02T23:51:13.591Z,100.00
2023-01-02T23:53:43.043Z,100.00
2023-01-02T23:56:18.891Z,100.00
2023-01-02T23:58:48.022Z,100.00
